Time;durP1;ratioP1;P1;durP2;ratioP2;P2;SDS_P1;SDS_P2;PMS_P1;PMS_P2;Temp;Humidity;BMP_temperature;BMP_pressure;BME280_temperature;BME280_humidity;BME280_pressure;Samples;Min_cycle;Max_cycle;Signal;HPM_P1;HPM_P2
2022/02/20 00:00:17;;;;;;;1.00;0.68;;;;;;;6.80;100.00;98709.97;5108924;28;20054;-80
2022/02/20 00:03:20;;;;;;;1.95;1.05;;;;;;;6.84;100.00;98688.44;5108081;28;20564;-80
2022/02/20 00:06:24;;;;;;;1.65;0.93;;;;;;;6.94;100.00;98686.31;5108820;28;20055;-81
2022/02/20 00:09:27;;;;;;;0.30;0.30;;;;;;;7.04;100.00;98677.41;5111098;28;20607;-80
2022/02/20 00:12:30;;;;;;;0.77;0.52;;;;;;;7.23;100.00;98672.44;5112496;28;20050;-80
2022/02/20 00:15:34;;;;;;;1.20;0.40;;;;;;;7.48;100.00;98655.91;5112594;28;20070;-79
2022/02/20 00:18:37;;;;;;;1.23;0.55;;;;;;;7.76;100.00;98650.72;5112116;28;20051;-80
2022/02/20 00:21:41;;;;;;;0.52;0.52;;;;;;;7.87;100.00;98647.31;5111318;28;20535;-80
2022/02/20 00:24:44;;;;;;;2.55;0.50;;;;;;;8.02;100.00;98643.22;5111723;28;20051;-80
2022/02/20 00:27:48;;;;;;;0.50;0.50;;;;;;;8.16;100.00;98641.59;5111404;28;20492;-80
2022/02/20 00:30:51;;;;;;;0.30;0.30;;;;;;;8.27;100.00;98625.13;5110519;28;20598;-79
2022/02/20 00:33:54;;;;;;;2.03;0.50;;;;;;;8.29;100.00;98623.34;5110484;28;20534;-80
2022/02/20 00:36:58;;;;;;;0.95;0.32;;;;;;;8.39;100.00;98626.72;5111909;28;20054;-80
2022/02/20 00:40:02;;;;;;;0.73;0.70;;;;;;;8.44;100.00;98634.34;5102452;28;20054;-80
2022/02/20 00:43:06;;;;;;;1.65;0.80;;;;;;;8.55;100.00;98623.34;5091452;28;20067;-80
2022/02/20 00:46:10;;;;;;;0.15;0.15;;;;;;;8.64;100.00;98622.41;5090156;28;20051;-80
2022/02/20 00:49:14;;;;;;;0.57;0.57;;;;;;;8.74;100.00;98613.41;5069808;28;20083;-80
2022/02/20 00:52:17;;;;;;;1.05;0.30;;;;;;;8.81;100.00;98607.41;5070864;28;20127;-80
2022/02/20 00:55:21;;;;;;;0.85;0.38;;;;;;;8.90;100.00;98601.66;5069823;28;20059;-80
2022/02/20 00:58:25;;;;;;;0.40;0.30;;;;;;;9.03;100.00;98610.31;5105423;28;20058;-80
2022/02/20 01:01:28;;;;;;;2.03;1.00;;;;;;;9.09;100.00;98594.47;5110522;28;20050;-80
2022/02/20 01:04:32;;;;;;;4.50;1.15;;;;;;;9.17;100.00;98594.75;5110511;28;20051;-80
2022/02/20 01:07:35;;;;;;;0.30;0.30;;;;;;;9.23;100.00;98572.56;5110577;28;20054;-80
2022/02/20 01:10:39;;;;;;;10.65;0.70;;;;;;;9.36;100.00;98578.44;5109808;28;20495;-81
2022/02/20 01:13:43;;;;;;;2.40;0.38;;;;;;;9.44;100.00;98579.50;5111015;28;20050;-80
2022/02/20 01:16:47;;;;;;;0.68;0.63;;;;;;;9.50;100.00;98572.69;5110210;28;20417;-80
2022/02/20 01:19:53;;;;;;;6.50;0.60;;;;;;;9.57;100.00;98565.91;5110216;28;20466;-80
2022/02/20 01:22:56;;;;;;;0.73;0.73;;;;;;;9.61;100.00;98574.75;5110157;28;20046;-80
2022/02/20 01:25:59;;;;;;;0.73;0.73;;;;;;;9.63;100.00;98569.47;5109519;28;20059;-79
2022/02/20 01:29:03;;;;;;;0.20;0.10;;;;;;;9.67;100.00;98578.31;5110847;28;20400;-80
2022/02/20 01:32:07;;;;;;;0.10;0.10;;;;;;;9.71;100.00;98574.03;5109920;28;20059;-81
2022/02/20 01:35:11;;;;;;;1.08;0.32;;;;;;;9.80;100.00;98564.72;5109350;28;20066;-80
2022/02/20 01:38:15;;;;;;;0.20;0.10;;;;;;;9.86;100.00;98568.25;5110470;28;20058;-80
2022/02/20 01:41:20;;;;;;;0.63;0.32;;;;;;;9.92;100.00;98569.03;5079439;28;20406;-80
2022/02/20 01:44:23;;;;;;;0.20;0.20;;;;;;;9.96;100.00;98555.66;5068751;28;20071;-81
2022/02/20 01:47:29;;;;;;;1.27;1.10;;;;;;;10.06;100.00;98556.94;5085643;28;20460;-80
2022/02/20 01:50:33;;;;;;;0.10;0.10;;;;;;;10.09;100.00;98553.13;5069686;28;20051;-81
2022/02/20 01:53:36;;;;;;;11.90;0.68;;;;;;;10.19;100.00;98551.66;5069547;28;20052;-80
2022/02/20 01:56:39;;;;;;;6.13;0.50;;;;;;;10.28;100.00;98557.00;5076004;28;20046;-81
2022/02/20 01:59:43;;;;;;;0.47;0.20;;;;;;;10.33;100.00;98559.00;5108944;28;20050;-81
2022/02/20 02:02:47;;;;;;;0.45;0.30;;;;;;;10.36;100.00;98549.66;5109254;28;20496;-81
2022/02/20 02:05:50;;;;;;;5.80;0.68;;;;;;;10.44;100.00;98547.88;5110327;28;20051;-81
2022/02/20 02:08:53;;;;;;;1.27;0.90;;;;;;;10.57;100.00;98556.47;5110207;28;20050;-81
2022/02/20 02:11:57;;;;;;;1.95;0.40;;;;;;;10.65;100.00;98540.03;5108992;28;20074;-81
2022/02/20 02:15:06;;;;;;;5.32;0.57;;;;;;;10.78;100.00;98551.41;5108943;28;20047;-80
2022/02/20 02:18:09;;;;;;;0.10;0.10;;;;;;;10.79;100.00;98549.34;5110121;28;20421;-81
2022/02/20 02:21:13;;;;;;;0.30;0.30;;;;;;;10.85;100.00;98539.00;5109160;28;20504;-81
2022/02/20 02:24:17;;;;;;;0.95;0.50;;;;;;;10.90;100.00;98541.00;5109509;28;20054;-81
2022/02/20 02:27:21;;;;;;;0.30;0.30;;;;;;;10.92;100.00;98530.84;5109454;28;20121;-81
2022/02/20 02:30:24;;;;;;;0.30;0.30;;;;;;;10.89;100.00;98537.47;5107775;28;20055;-81
2022/02/20 02:33:29;;;;;;;0.28;0.28;;;;;;;11.01;100.00;98522.22;5105014;28;20050;-81
2022/02/20 02:36:33;;;;;;;0.30;0.30;;;;;;;11.10;100.00;98518.41;5106815;28;20079;-81
2022/02/20 02:39:37;;;;;;;1.65;0.43;;;;;;;11.23;100.00;98515.81;5089341;28;20885;-80
2022/02/20 02:42:41;;;;;;;1.75;0.32;;;;;;;11.21;100.00;98501.66;5088422;28;20160;-81
2022/02/20 02:45:44;;;;;;;10.15;0.80;;;;;;;11.23;100.00;98504.69;5088189;28;20055;-80
2022/02/20 02:48:50;;;;;;;0.70;0.60;;;;;;;11.29;100.00;98519.34;5067883;28;20147;-80
2022/02/20 02:51:54;;;;;;;0.20;0.20;;;;;;;11.28;100.00;98501.13;5068024;28;20059;-79
2022/02/20 02:54:59;;;;;;;3.92;1.05;;;;;;;11.32;100.00;98491.22;5068370;28;20075;-80
2022/02/20 02:58:04;;;;;;;4.95;0.40;;;;;;;11.40;100.00;98514.50;5097464;28;20125;-81
2022/02/20 03:01:08;;;;;;;7.28;0.47;;;;;;;11.43;100.00;98523.88;5108973;28;20070;-80
2022/02/20 03:04:12;;;;;;;9.95;0.45;;;;;;;11.47;100.00;98518.00;5108535;28;20500;-79
2022/02/20 03:07:16;;;;;;;6.25;1.65;;;;;;;11.45;100.00;98510.16;5097294;28;20063;-80
2022/02/20 03:10:19;;;;;;;0.13;0.13;;;;;;;11.49;100.00;98504.31;5099933;28;20047;-80
2022/02/20 03:13:23;;;;;;;0.30;0.20;;;;;;;11.48;100.00;98481.25;5108776;28;20503;-80
2022/02/20 03:16:26;;;;;;;1.00;0.52;;;;;;;11.45;100.00;98485.06;5107603;28;20613;-80
2022/02/20 03:19:30;;;;;;;10.48;1.40;;;;;;;11.51;100.00;98480.22;5088103;28;20071;-80
2022/02/20 03:22:33;;;;;;;0.28;0.28;;;;;;;11.49;100.00;98471.63;5088064;28;20047;-80
2022/02/20 03:25:36;;;;;;;1.17;0.80;;;;;;;11.45;100.00;98479.50;5096413;28;20046;-80
2022/02/20 03:28:40;;;;;;;1.40;0.60;;;;;;;11.53;100.00;98499.22;5094924;28;20066;-80
2022/02/20 03:31:44;;;;;;;0.17;0.13;;;;;;;11.60;100.00;98471.56;5096242;28;20051;-80
2022/02/20 03:34:47;;;;;;;0.25;0.25;;;;;;;11.60;100.00;98493.88;5095609;28;20055;-80
2022/02/20 03:37:51;;;;;;;3.85;1.40;;;;;;;11.62;100.00;98477.38;5101610;28;20075;-79
2022/02/20 03:40:54;;;;;;;0.90;0.30;;;;;;;11.59;100.00;98481.19;5093311;28;20055;-80
2022/02/20 03:43:58;;;;;;;0.38;0.38;;;;;;;11.54;100.00;98456.91;5084526;28;20043;-80
2022/02/20 03:47:02;;;;;;;5.93;0.70;;;;;;;11.51;100.00;98476.66;5084159;28;20070;-80
2022/02/20 03:50:07;;;;;;;0.22;0.22;;;;;;;11.56;100.00;98443.19;5112252;28;20054;-80
2022/02/20 03:53:10;;;;;;;0.85;0.55;;;;;;;11.60;100.00;98448.50;5112502;28;20043;-80
2022/02/20 03:56:14;;;;;;;2.28;0.80;;;;;;;11.59;100.00;98447.72;5111994;28;20046;-80
2022/02/20 03:59:17;;;;;;;13.02;1.55;;;;;;;11.57;100.00;98450.28;5112620;28;20047;-80
2022/02/20 04:02:20;;;;;;;1.00;0.55;;;;;;;11.61;100.00;98459.13;5112076;28;20054;-80
2022/02/20 04:05:24;;;;;;;4.32;0.93;;;;;;;11.66;100.00;98458.34;5111854;28;20499;-80
2022/02/20 04:08:27;;;;;;;11.30;0.90;;;;;;;11.77;100.00;98449.16;5111685;28;20055;-79
2022/02/20 04:11:30;;;;;;;0.70;0.70;;;;;;;11.77;100.00;98441.56;5112463;28;20047;-80
2022/02/20 04:14:34;;;;;;;4.28;1.02;;;;;;;11.79;100.00;98436.22;5111198;28;20047;-80
2022/02/20 04:17:42;;;;;;;8.07;1.13;;;;;;;11.76;100.00;98434.44;5110739;28;20051;-80
2022/02/20 04:20:47;;;;;;;9.32;0.35;;;;;;;11.73;100.00;98418.78;5100865;28;20059;-80
2022/02/20 04:23:51;;;;;;;19.48;1.27;;;;;;;11.73;100.00;98415.97;5090657;28;20416;-80
2022/02/20 04:26:55;;;;;;;5.57;0.85;;;;;;;11.73;100.00;98396.47;5095927;28;20066;-80
2022/02/20 04:29:58;;;;;;;8.18;0.90;;;;;;;11.74;100.00;98383.25;5110931;28;20054;-79
2022/02/20 04:33:02;;;;;;;3.30;1.45;;;;;;;11.78;100.00;98370.53;5110859;28;20535;-80
2022/02/20 04:36:06;;;;;;;0.50;0.47;;;;;;;11.81;100.00;98366.72;5110787;28;20050;-80
2022/02/20 04:39:10;;;;;;;11.45;1.30;;;;;;;11.81;100.00;98368.75;5110228;28;20073;-79
2022/02/20 04:42:14;;;;;;;19.02;1.58;;;;;;;11.82;100.00;98371.03;5089843;28;20067;-80
2022/02/20 04:45:20;;;;;;;0.43;0.43;;;;;;;11.85;100.00;98363.63;5091045;28;20397;-79
2022/02/20 04:48:24;;;;;;;7.88;1.10;;;;;;;11.80;100.00;98356.84;5090606;28;20047;-79
2022/02/20 04:51:27;;;;;;;1.05;0.55;;;;;;;11.76;100.00;98327.75;5090784;28;20071;-80
2022/02/20 04:54:31;;;;;;;12.43;3.15;;;;;;;11.77;100.00;98363.47;5089532;28;20051;-80
2022/02/20 04:57:36;;;;;;;0.10;0.10;;;;;;;11.82;100.00;98381.44;5102046;28;20113;-80
2022/02/20 05:00:40;;;;;;;7.68;1.42;;;;;;;11.92;100.00;98377.78;5111222;28;20055;-79
2022/02/20 05:03:43;;;;;;;5.30;0.82;;;;;;;11.97;100.00;98384.59;5109532;28;20062;-80
2022/02/20 05:06:46;;;;;;;16.95;1.10;;;;;;;11.93;100.00;98378.56;5111046;28;20051;-81
2022/02/20 05:09:50;;;;;;;17.95;1.00;;;;;;;11.91;100.00;98373.47;5111065;28;20051;-80
2022/02/20 05:12:53;;;;;;;0.50;0.45;;;;;;;11.91;100.00;98384.63;5101478;28;20500;-80
2022/02/20 05:15:57;;;;;;;3.33;0.55;;;;;;;11.82;100.00;98370.28;5090730;28;20062;-81
2022/02/20 05:19:01;;;;;;;7.75;2.75;;;;;;;11.81;100.00;98365.97;5110835;28;20051;-80
2022/02/20 05:22:04;;;;;;;7.05;1.20;;;;;;;11.80;100.00;98354.03;5110051;28;20051;-81
2022/02/20 05:25:07;;;;;;;9.68;1.40;;;;;;;11.86;100.00;98360.34;5111102;28;20059;-80
2022/02/20 05:28:11;;;;;;;5.35;0.73;;;;;;;11.86;100.00;98363.13;5110385;28;20181;-80
2022/02/20 05:31:14;;;;;;;6.90;0.85;;;;;;;11.85;100.00;98342.09;5109684;28;20059;-81
2022/02/20 05:34:18;;;;;;;2.17;0.65;;;;;;;11.90;100.00;98341.28;5100434;28;20398;-80
2022/02/20 05:37:23;;;;;;;5.05;0.63;;;;;;;11.78;100.00;98348.22;5099571;28;20058;-82
2022/02/20 05:40:26;;;;;;;2.03;0.80;;;;;;;11.85;100.00;98344.88;5098528;28;20066;-82
2022/02/20 05:43:30;;;;;;;0.30;0.30;;;;;;;11.94;100.00;98333.38;5089455;28;20055;-80
2022/02/20 05:46:34;;;;;;;1.30;0.20;;;;;;;11.94;100.00;98327.81;5089858;28;20402;-80
2022/02/20 05:49:37;;;;;;;6.70;0.30;;;;;;;11.92;100.00;98335.94;5085763;28;20094;-80
2022/02/20 05:52:41;;;;;;;9.82;0.40;;;;;;;11.90;100.00;98349.66;5089351;28;20075;-79
2022/02/20 05:55:44;;;;;;;7.78;1.58;;;;;;;11.93;100.00;98348.59;5089560;28;20055;-80
2022/02/20 05:58:48;;;;;;;0.43;0.43;;;;;;;11.92;100.00;98341.53;5089622;28;20476;-80
2022/02/20 06:01:51;;;;;;;5.20;1.52;;;;;;;11.87;100.00;98336.75;5089946;28;20055;-80
2022/02/20 06:04:55;;;;;;;8.70;1.15;;;;;;;11.86;100.00;98335.25;5089399;28;20051;-80
2022/02/20 06:07:58;;;;;;;5.57;1.83;;;;;;;11.92;100.00;98330.38;5104304;28;20413;-85
2022/02/20 06:11:01;;;;;;;11.40;1.10;;;;;;;11.94;100.00;98327.81;5112640;28;20054;-83
2022/02/20 06:14:05;;;;;;;0.10;0.10;;;;;;;11.95;100.00;98306.97;5108899;28;20050;-79
2022/02/20 06:17:08;;;;;;;5.05;1.42;;;;;;;11.96;100.00;98318.91;5108681;28;20054;-79
2022/02/20 06:20:12;;;;;;;0.45;0.40;;;;;;;11.97;100.00;98321.19;5109580;28;20055;-80
2022/02/20 06:23:15;;;;;;;2.78;0.95;;;;;;;12.03;100.00;98319.09;5108850;28;20063;-80
2022/02/20 06:26:19;;;;;;;3.50;0.95;;;;;;;12.03;100.00;98307.94;5109515;28;20047;-80
2022/02/20 06:29:22;;;;;;;0.85;0.63;;;;;;;12.03;100.00;98307.94;5109524;28;20617;-80
2022/02/20 06:32:26;;;;;;;0.80;0.30;;;;;;;12.08;100.00;98293.16;5108576;28;20058;-79
2022/02/20 06:35:29;;;;;;;0.20;0.00;;;;;;;12.10;100.00;98310.16;5107940;28;20050;-80
2022/02/20 06:38:32;;;;;;;0.20;0.20;;;;;;;12.11;100.00;98278.16;5106738;28;20051;-79
2022/02/20 06:41:38;;;;;;;0.80;0.30;;;;;;;12.11;100.00;98280.97;5067213;28;20799;-80
2022/02/20 06:44:42;;;;;;;2.42;0.38;;;;;;;12.15;100.00;98281.41;5067479;28;20055;-79
2022/02/20 06:47:45;;;;;;;18.98;0.57;;;;;;;12.14;100.00;98279.16;5091008;28;20054;-79
2022/02/20 06:50:49;;;;;;;0.70;0.20;;;;;;;12.18;100.00;98285.97;5107770;28;20050;-80
2022/02/20 06:53:52;;;;;;;2.85;0.40;;;;;;;12.27;100.00;98264.53;5107543;28;20058;-80
2022/02/20 06:56:56;;;;;;;3.30;0.73;;;;;;;12.26;100.00;98247.03;5109178;28;20121;-79
2022/02/20 07:00:00;;;;;;;5.93;0.30;;;;;;;12.25;100.00;98264.31;5109109;28;20046;-79
2022/02/20 07:03:04;;;;;;;0.10;0.00;;;;;;;12.27;100.00;98264.53;5109482;28;20050;-79
2022/02/20 07:06:09;;;;;;;0.38;0.28;;;;;;;12.29;100.00;98259.19;5109200;28;20063;-79
2022/02/20 07:09:12;;;;;;;0.60;0.13;;;;;;;12.29;100.00;98262.75;5108535;28;20062;-79
2022/02/20 07:12:16;;;;;;;0.52;0.10;;;;;;;12.26;100.00;98266.56;5109219;28;20078;-79
2022/02/20 07:15:19;;;;;;;0.47;0.22;;;;;;;12.27;100.00;98273.69;5108555;28;20063;-78
2022/02/20 07:18:22;;;;;;;1.17;0.22;;;;;;;12.30;100.00;98263.50;5111925;28;20437;-78
2022/02/20 07:21:28;;;;;;;1.95;0.20;;;;;;;12.30;100.00;98263.50;5112068;28;20535;-79
2022/02/20 07:24:32;;;;;;;3.05;0.40;;;;;;;12.32;100.00;98256.13;5112270;28;20078;-79
2022/02/20 07:27:40;;;;;;;8.55;1.17;;;;;;;12.36;100.00;98244.66;5112046;28;20051;-79
2022/02/20 07:30:43;;;;;;;16.65;1.25;;;;;;;12.36;100.00;98256.56;5111813;28;20066;-79
2022/02/20 07:33:47;;;;;;;0.30;0.30;;;;;;;12.36;100.00;98262.16;5094469;28;20054;-79
2022/02/20 07:36:51;;;;;;;0.55;0.35;;;;;;;12.34;100.00;98231.22;5097547;28;20593;-79
2022/02/20 07:39:55;;;;;;;0.90;0.10;;;;;;;12.41;100.00;98235.47;5105523;28;20055;-79
2022/02/20 07:42:58;;;;;;;6.45;0.60;;;;;;;12.41;100.00;98218.72;5092184;28;20047;-79
2022/02/20 07:46:01;;;;;;;6.60;0.75;;;;;;;12.51;100.00;98228.19;5091193;28;20051;-79
2022/02/20 07:49:05;;;;;;;0.20;0.20;;;;;;;12.52;100.00;98213.72;5071140;28;20055;-79
2022/02/20 07:52:09;;;;;;;8.45;0.70;;;;;;;12.48;100.00;98223.66;5070732;28;20051;-80
2022/02/20 07:55:12;;;;;;;0.75;0.50;;;;;;;12.54;100.00;98210.41;5070898;28;20047;-80
2022/02/20 07:58:19;;;;;;;3.72;1.15;;;;;;;12.54;100.00;98210.41;5104687;28;20050;-80
2022/02/20 08:01:23;;;;;;;1.45;0.25;;;;;;;12.54;100.00;98221.56;5111863;28;20079;-80
2022/02/20 08:04:27;;;;;;;0.22;0.22;;;;;;;12.58;100.00;98208.06;5111618;28;20401;-80
2022/02/20 08:07:31;;;;;;;0.65;0.38;;;;;;;12.40;100.00;98201.19;5112929;28;20058;-78
2022/02/20 08:10:34;;;;;;;0.45;0.45;;;;;;;12.23;100.00;98211.06;5114653;28;20050;-80
2022/02/20 08:13:37;;;;;;;0.22;0.22;;;;;;;12.50;100.00;98215.50;5116125;28;20058;-81
2022/02/20 08:16:41;;;;;;;0.10;0.10;;;;;;;12.60;100.00;98202.69;5112410;28;20042;-80
2022/02/20 08:19:44;;;;;;;0.52;0.52;;;;;;;12.58;100.00;98205.28;5111208;28;20594;-80
2022/02/20 08:22:49;;;;;;;0.30;0.30;;;;;;;12.63;100.00;98199.59;5100659;28;20058;-81
2022/02/20 08:25:53;;;;;;;2.63;0.30;;;;;;;12.63;100.00;98198.81;5083620;28;20047;-80
2022/02/20 08:28:56;;;;;;;1.02;0.25;;;;;;;12.64;100.00;98203.16;5071196;28;20052;-80
2022/02/20 08:32:02;;;;;;;0.95;0.63;;;;;;;12.61;100.00;98204.19;5070115;28;20508;-81
2022/02/20 08:35:11;;;;;;;10.73;1.50;;;;;;;12.59;100.00;98195.59;5071302;28;20056;-80
2022/02/20 08:38:16;;;;;;;2.72;0.55;;;;;;;12.65;100.00;98205.41;5104700;28;20663;-81
2022/02/20 08:41:19;;;;;;;0.95;0.15;;;;;;;12.63;100.00;98196.03;5092727;28;20047;-80
2022/02/20 08:44:23;;;;;;;0.45;0.45;;;;;;;12.67;100.00;98186.06;5090441;28;20074;-80
2022/02/20 08:47:27;;;;;;;0.10;0.10;;;;;;;12.72;100.00;98188.03;5089951;28;20047;-81
2022/02/20 08:50:30;;;;;;;0.10;0.10;;;;;;;12.66;100.00;98184.56;5092333;28;20655;-80
2022/02/20 08:53:35;;;;;;;1.08;0.20;;;;;;;12.76;100.00;98182.13;5091255;28;20066;-81
2022/02/20 08:56:38;;;;;;;1.52;0.35;;;;;;;12.81;100.00;98184.09;5093169;28;20047;-80
2022/02/20 08:59:43;;;;;;;0.40;0.40;;;;;;;12.82;100.00;98174.44;5110719;28;20448;-81
2022/02/20 09:02:47;;;;;;;1.95;0.40;;;;;;;12.83;100.00;98176.69;5111354;28;20067;-81
2022/02/20 09:05:50;;;;;;;0.90;0.57;;;;;;;12.75;100.00;98177.84;5110748;28;20567;-81
2022/02/20 09:08:53;;;;;;;1.27;0.88;;;;;;;12.88;100.00;98173.06;5110208;28;20059;-80
2022/02/20 09:11:57;;;;;;;0.73;0.40;;;;;;;12.90;100.00;98164.16;5110092;28;20070;-80
2022/02/20 09:15:02;;;;;;;1.50;0.15;;;;;;;12.90;100.00;98152.97;5111202;28;20055;-80
2022/02/20 09:18:06;;;;;;;1.95;0.30;;;;;;;12.89;100.00;98157.03;5109984;28;20055;-81
2022/02/20 09:21:09;;;;;;;1.90;0.25;;;;;;;12.89;100.00;98140.28;5110933;28;20054;-80
2022/02/20 09:24:13;;;;;;;0.10;0.10;;;;;;;12.93;100.00;98141.47;5110095;28;20054;-81
2022/02/20 09:27:17;;;;;;;0.10;0.10;;;;;;;13.03;100.00;98141.84;5110813;28;20047;-80
2022/02/20 09:30:20;;;;;;;7.28;0.73;;;;;;;13.11;100.00;98139.19;5110170;28;20070;-80
2022/02/20 09:33:23;;;;;;;7.75;1.10;;;;;;;13.10;100.00;98132.84;5101643;28;20047;-80
2022/02/20 09:36:27;;;;;;;1.27;0.20;;;;;;;13.12;100.00;98140.69;5091529;28;20075;-79
2022/02/20 09:39:32;;;;;;;2.60;1.50;;;;;;;13.17;100.00;98137.78;5105437;28;20520;-79
2022/02/20 09:42:35;;;;;;;3.35;1.17;;;;;;;13.20;100.00;98127.59;5090093;28;20456;-80
2022/02/20 09:45:45;;;;;;;24.10;3.28;;;;;;;13.20;100.00;98125.56;5090134;28;20051;-80
2022/02/20 09:48:55;;;;;;;6.97;1.67;;;;;;;13.18;100.00;98119.75;5072782;28;20055;-81
2022/02/20 09:51:59;;;;;;;11.05;1.52;;;;;;;13.17;100.00;98093.06;5068992;28;20072;-80
2022/02/20 09:55:03;;;;;;;2.72;1.17;;;;;;;13.21;100.00;98093.50;5068367;28;20051;-79
2022/02/20 09:58:08;;;;;;;3.22;1.85;;;;;;;13.20;100.00;98108.03;5100310;28;20051;-79
2022/02/20 10:01:14;;;;;;;2.05;0.75;;;;;;;13.21;100.00;98093.50;5110266;28;20050;-79
2022/02/20 10:04:17;;;;;;;0.63;0.40;;;;;;;13.25;100.00;98091.16;5110314;28;20058;-79
2022/02/20 10:07:33;;;;;;;1.55;0.90;;;;;;;13.28;100.00;98092.88;5110452;28;20067;-80
2022/02/20 10:10:37;;;;;;;9.57;1.15;;;;;;;13.30;100.00;98073.50;5109149;28;20055;-80
2022/02/20 10:13:41;;;;;;;4.10;1.75;;;;;;;13.26;100.00;98081.47;5095558;28;20118;-80
2022/02/20 10:16:44;;;;;;;0.75;0.15;;;;;;;13.31;100.00;98072.25;5099454;28;20046;-79
2022/02/20 10:19:59;;;;;;;0.82;0.40;;;;;;;13.33;100.00;98061.28;5098301;28;20055;-79
2022/02/20 10:23:14;;;;;;;1.83;0.47;;;;;;;13.29;100.00;98038.47;5097144;28;20051;-79
2022/02/20 10:26:23;;;;;;;5.97;0.25;;;;;;;13.31;100.00;98057.50;5094837;28;20047;-80
2022/02/20 10:29:26;;;;;;;5.53;0.43;;;;;;;13.33;100.00;98027.72;5098311;28;20070;-80
2022/02/20 10:32:32;;;;;;;0.20;0.20;;;;;;;13.31;100.00;98038.69;5098960;28;20173;-80
2022/02/20 10:35:41;;;;;;;10.82;1.42;;;;;;;13.36;100.00;98025.91;5099098;28;20097;-80
2022/02/20 10:38:45;;;;;;;2.83;0.28;;;;;;;13.38;100.00;98029.63;5097292;28;20051;-80
2022/02/20 10:41:49;;;;;;;5.10;0.70;;;;;;;13.48;100.00;98022.31;5096180;28;20460;-80
2022/02/20 10:44:56;;;;;;;10.77;0.77;;;;;;;13.52;100.00;98022.00;5067793;28;20055;-79
2022/02/20 10:48:02;;;;;;;15.02;1.13;;;;;;;13.55;100.00;98012.53;5082757;28;20119;-79
2022/02/20 10:51:06;;;;;;;1.02;0.75;;;;;;;13.56;100.00;98017.56;5089174;28;20104;-79
2022/02/20 10:54:09;;;;;;;0.75;0.50;;;;;;;13.57;100.00;98005.09;5088937;28;20554;-79
2022/02/20 10:57:32;;;;;;;3.33;0.93;;;;;;;13.55;100.00;97996.50;5087759;28;20413;-79
2022/02/20 11:00:51;;;;;;;7.32;0.63;;;;;;;13.59;100.00;97987.78;5089778;28;20051;-79
2022/02/20 11:04:10;;;;;;;0.20;0.20;;;;;;;13.62;100.00;98004.22;5089241;28;20055;-79
2022/02/20 11:07:16;;;;;;;0.43;0.40;;;;;;;13.66;100.00;97993.44;5096864;28;20073;-78
2022/02/20 11:10:20;;;;;;;1.85;0.57;;;;;;;13.68;100.00;97968.50;5109470;28;20361;-80
2022/02/20 11:13:25;;;;;;;3.83;0.32;;;;;;;13.72;100.00;97970.19;5109350;28;20055;-78
2022/02/20 11:16:31;;;;;;;3.63;0.45;;;;;;;13.74;100.00;97971.16;5108444;28;20051;-80
2022/02/20 11:19:38;;;;;;;0.10;0.10;;;;;;;13.71;100.00;97949.13;5108658;28;20055;-80
2022/02/20 11:22:50;;;;;;;3.03;0.68;;;;;;;13.72;100.00;97961.81;5108883;28;20047;-79
2022/02/20 11:25:56;;;;;;;0.52;0.25;;;;;;;13.73;100.00;97946.53;5109433;28;20062;-80
2022/02/20 11:29:00;;;;;;;0.13;0.13;;;;;;;13.79;100.00;97931.13;5100346;28;20098;-78
2022/02/20 11:32:05;;;;;;;2.65;1.20;;;;;;;13.81;100.00;97930.56;5088311;28;20055;-79
2022/02/20 11:35:13;;;;;;;0.68;0.55;;;;;;;13.87;100.00;97914.41;5087874;28;20500;-79
2022/02/20 11:38:22;;;;;;;1.02;0.57;;;;;;;13.94;100.00;97911.69;5104671;28;20070;-79
2022/02/20 11:41:25;;;;;;;0.30;0.30;;;;;;;13.95;100.00;97912.44;5087996;28;20055;-79
2022/02/20 11:44:47;;;;;;;0.45;0.20;;;;;;;13.93;100.00;97909.41;5092560;28;20042;-79
2022/02/20 11:48:02;;;;;;;3.30;0.47;;;;;;;13.97;100.00;97890.25;5093462;28;20055;-79
2022/02/20 11:51:15;;;;;;;0.65;0.57;;;;;;;13.99;100.00;97857.63;5108238;28;20055;-78
2022/02/20 11:54:21;;;;;;;2.83;0.30;;;;;;;14.06;100.00;97858.97;5108112;28;20054;-79
2022/02/20 11:57:26;;;;;;;1.45;0.73;;;;;;;14.08;100.00;97847.97;5104968;28;20043;-79
2022/02/20 12:00:29;;;;;;;0.10;0.10;;;;;;;14.11;100.00;97841.28;5094568;28;20074;-78
2022/02/20 12:04:01;;;;;;;2.20;0.28;;;;;;;14.16;100.00;97843.22;5095867;28;20051;-79
2022/02/20 12:07:42;;;;;;;0.68;0.20;;;;;;;14.18;100.00;97851.81;5102058;28;20814;-78
2022/02/20 12:10:46;;;;;;;0.85;0.20;;;;;;;14.20;100.00;97829.59;5096857;28;20512;-80
2022/02/20 12:14:11;;;;;;;0.47;0.15;;;;;;;14.18;100.00;97827.38;5098910;28;20058;-79
2022/02/20 12:17:15;;;;;;;1.00;0.47;;;;;;;14.15;100.00;97819.31;5100608;28;20043;-77
2022/02/20 12:20:18;;;;;;;3.40;1.25;;;;;;;14.14;100.00;97801.03;5098208;28;20043;-78
2022/02/20 12:23:29;;;;;;;4.80;0.50;;;;;;;14.10;100.00;97801.34;5100595;28;20043;-77
2022/02/20 12:26:46;;;;;;;0.40;0.10;;;;;;;14.12;100.00;97793.16;5096478;28;20063;-77
2022/02/20 12:29:51;;;;;;;0.52;0.20;;;;;;;14.09;100.00;97787.91;5098101;28;20488;-78
2022/02/20 12:32:59;;;;;;;0.35;0.35;;;;;;;14.09;100.00;97779.50;5098966;28;20535;-79
2022/02/20 12:36:05;;;;;;;1.20;0.60;;;;;;;14.09;100.00;97766.28;5105785;28;20054;-79
2022/02/20 12:39:09;;;;;;;1.55;0.60;;;;;;;14.17;100.00;97760.72;5071502;28;20060;-79
2022/02/20 12:42:12;;;;;;;0.10;0.10;;;;;;;14.13;100.00;97737.94;5070394;28;20055;-79
2022/02/20 12:45:19;;;;;;;2.75;0.80;;;;;;;14.03;100.00;97753.72;5077097;28;20047;-80
2022/02/20 12:48:23;;;;;;;0.40;0.40;;;;;;;14.02;100.00;97749.41;5108870;28;20051;-78
2022/02/20 12:51:26;;;;;;;0.52;0.20;;;;;;;14.03;100.00;97728.53;5084824;28;20051;-78
2022/02/20 12:54:30;;;;;;;0.20;0.10;;;;;;;14.04;100.00;97724.44;5090681;28;20051;-78
2022/02/20 12:57:37;;;;;;;0.10;0.10;;;;;;;13.99;100.00;97711.34;5100991;28;20054;-79
2022/02/20 13:00:44;;;;;;;0.90;0.10;;;;;;;13.93;100.00;97689.13;5110113;28;20058;-79
2022/02/20 13:03:51;;;;;;;0.20;0.20;;;;;;;13.89;100.00;97697.09;5111249;28;20055;-79
2022/02/20 13:07:03;;;;;;;0.98;0.22;;;;;;;13.92;100.00;97692.47;5111489;28;20050;-80
2022/02/20 13:10:08;;;;;;;3.50;0.50;;;;;;;13.97;100.00;97680.38;5111339;28;20051;-79
2022/02/20 13:13:17;;;;;;;0.85;0.20;;;;;;;13.95;100.00;97660.56;5110574;28;20055;-79
2022/02/20 13:16:23;;;;;;;5.43;1.10;;;;;;;13.96;100.00;97650.88;5110659;28;20485;-80
2022/02/20 13:19:34;;;;;;;0.50;0.10;;;;;;;13.97;100.00;97646.81;5104264;28;20401;-79
2022/02/20 13:22:38;;;;;;;3.35;0.40;;;;;;;14.00;100.00;97631.69;5089877;28;20063;-79
2022/02/20 13:25:42;;;;;;;0.77;0.45;;;;;;;14.05;100.00;97630.78;5090721;28;20051;-79
2022/02/20 13:28:50;;;;;;;3.20;0.20;;;;;;;14.05;100.00;97622.38;5089957;28;20059;-80
2022/02/20 13:31:54;;;;;;;7.38;0.73;;;;;;;14.02;100.00;97598.28;5089628;28;20047;-79
2022/02/20 13:34:57;;;;;;;3.95;0.77;;;;;;;13.94;100.00;97587.09;5089297;28;20047;-80
2022/02/20 13:38:06;;;;;;;4.05;0.52;;;;;;;13.95;100.00;97587.81;5103772;28;20058;-79
2022/02/20 13:41:13;;;;;;;2.78;0.88;;;;;;;13.93;100.00;97576.44;5092508;28;20055;-79
2022/02/20 13:44:33;;;;;;;0.60;0.60;;;;;;;13.89;100.00;97556.47;5090347;28;20051;-81
2022/02/20 13:47:37;;;;;;;0.10;0.03;;;;;;;13.88;100.00;97547.31;5085444;28;20119;-81
2022/02/20 13:50:41;;;;;;;0.38;0.38;;;;;;;13.89;100.00;97537.63;5085671;28;20051;-79
2022/02/20 13:53:47;;;;;;;6.15;0.55;;;;;;;13.89;100.00;97514.50;5089372;28;20054;-79
2022/02/20 13:56:54;;;;;;;0.30;0.10;;;;;;;13.91;100.00;97512.63;5094388;28;20050;-80
2022/02/20 13:59:58;;;;;;;3.28;0.63;;;;;;;13.90;100.00;97479.63;5109594;28;20591;-79
2022/02/20 14:03:01;;;;;;;2.38;0.20;;;;;;;13.88;100.00;97482.22;5109856;28;20401;-79
2022/02/20 14:06:06;;;;;;;0.20;0.20;;;;;;;13.84;100.00;97462.28;5108933;28;20051;-80
2022/02/20 14:09:12;;;;;;;0.95;0.13;;;;;;;13.81;100.00;97457.78;5109619;28;20054;-79
2022/02/20 14:12:22;;;;;;;0.40;0.20;;;;;;;13.80;100.00;97442.28;5109420;28;20527;-81
2022/02/20 14:15:31;;;;;;;0.10;0.00;;;;;;;13.82;100.00;97411.72;5109747;28;20070;-80
2022/02/20 14:18:46;;;;;;;0.10;0.10;;;;;;;13.80;100.00;97411.50;5110356;28;20050;-80
2022/02/20 14:21:56;;;;;;;0.10;0.10;;;;;;;13.83;100.00;97385.22;5069419;28;20052;-80